sensor_id;sensor_type;location;lat;lon;timestamp;P1;durP1;ratioP1;P2;durP2;ratioP2
5795;SDS011;2924;51.458;7.046;2022-07-04T00:00:44;15.63;;;1.50;;
5795;SDS011;2924;51.458;7.046;2022-07-04T00:03:10;1.90;;;1.00;;
5795;SDS011;2924;51.458;7.046;2022-07-04T00:05:36;3.30;;;0.93;;
5795;SDS011;2924;51.458;7.046;2022-07-04T00:08:02;11.33;;;1.20;;
5795;SDS011;2924;51.458;7.046;2022-07-04T00:10:28;12.03;;;1.07;;
5795;SDS011;2924;51.458;7.046;2022-07-04T00:12:53;3.40;;;1.13;;
5795;SDS011;2924;51.458;7.046;2022-07-04T00:15:19;9.67;;;1.57;;
5795;SDS011;2924;51.458;7.046;2022-07-04T00:17:45;1.33;;;0.80;;
5795;SDS011;2924;51.458;7.046;2022-07-04T00:20:11;2.00;;;1.30;;
5795;SDS011;2924;51.458;7.046;2022-07-04T00:22:37;4.53;;;1.83;;
5795;SDS011;2924;51.458;7.046;2022-07-04T00:25:03;6.93;;;1.30;;
5795;SDS011;2924;51.458;7.046;2022-07-04T00:27:30;2.13;;;1.60;;
5795;SDS011;2924;51.458;7.046;2022-07-04T00:29:56;3.53;;;1.30;;
5795;SDS011;2924;51.458;7.046;2022-07-04T00:32:22;1.83;;;1.23;;
5795;SDS011;2924;51.458;7.046;2022-07-04T00:34:47;2.00;;;1.10;;
5795;SDS011;2924;51.458;7.046;2022-07-04T00:37:13;1.60;;;1.43;;
5795;SDS011;2924;51.458;7.046;2022-07-04T00:39:39;4.03;;;1.57;;
5795;SDS011;2924;51.458;7.046;2022-07-04T00:42:05;4.57;;;1.97;;
5795;SDS011;2924;51.458;7.046;2022-07-04T00:44:31;5.60;;;1.53;;
5795;SDS011;2924;51.458;7.046;2022-07-04T00:47:01;6.13;;;1.67;;
5795;SDS011;2924;51.458;7.046;2022-07-04T00:49:28;3.50;;;1.73;;
5795;SDS011;2924;51.458;7.046;2022-07-04T00:51:54;9.87;;;2.27;;
5795;SDS011;2924;51.458;7.046;2022-07-04T00:54:20;4.27;;;1.70;;
5795;SDS011;2924;51.458;7.046;2022-07-04T00:56:49;9.47;;;1.80;;
5795;SDS011;2924;51.458;7.046;2022-07-04T00:59:15;3.67;;;1.70;;
5795;SDS011;2924;51.458;7.046;2022-07-04T01:01:41;2.57;;;1.60;;
5795;SDS011;2924;51.458;7.046;2022-07-04T01:04:07;3.53;;;1.67;;
5795;SDS011;2924;51.458;7.046;2022-07-04T01:06:33;2.73;;;1.53;;
5795;SDS011;2924;51.458;7.046;2022-07-04T01:08:59;6.13;;;2.13;;
5795;SDS011;2924;51.458;7.046;2022-07-04T01:11:25;4.67;;;2.00;;
5795;SDS011;2924;51.458;7.046;2022-07-04T01:13:52;4.37;;;2.40;;
5795;SDS011;2924;51.458;7.046;2022-07-04T01:16:19;3.20;;;1.90;;
5795;SDS011;2924;51.458;7.046;2022-07-04T01:18:44;3.23;;;1.37;;
5795;SDS011;2924;51.458;7.046;2022-07-04T01:21:10;3.43;;;1.90;;
5795;SDS011;2924;51.458;7.046;2022-07-04T01:23:39;2.87;;;1.57;;
5795;SDS011;2924;51.458;7.046;2022-07-04T01:26:06;6.13;;;3.73;;
5795;SDS011;2924;51.458;7.046;2022-07-04T01:28:32;5.10;;;2.10;;
5795;SDS011;2924;51.458;7.046;2022-07-04T01:30:59;3.63;;;1.83;;
5795;SDS011;2924;51.458;7.046;2022-07-04T01:33:25;8.63;;;2.40;;
5795;SDS011;2924;51.458;7.046;2022-07-04T01:35:50;13.00;;;3.07;;
5795;SDS011;2924;51.458;7.046;2022-07-04T01:38:16;6.70;;;2.53;;
5795;SDS011;2924;51.458;7.046;2022-07-04T01:40:42;10.40;;;2.50;;
5795;SDS011;2924;51.458;7.046;2022-07-04T01:43:08;10.93;;;3.40;;
5795;SDS011;2924;51.458;7.046;2022-07-04T01:45:34;9.40;;;2.70;;
5795;SDS011;2924;51.458;7.046;2022-07-04T01:48:03;3.20;;;2.30;;
5795;SDS011;2924;51.458;7.046;2022-07-04T01:50:33;3.60;;;2.13;;
5795;SDS011;2924;51.458;7.046;2022-07-04T01:52:59;4.90;;;2.03;;
5795;SDS011;2924;51.458;7.046;2022-07-04T01:55:25;6.97;;;2.53;;
5795;SDS011;2924;51.458;7.046;2022-07-04T01:57:51;4.50;;;2.50;;
5795;SDS011;2924;51.458;7.046;2022-07-04T02:00:17;6.27;;;2.60;;
5795;SDS011;2924;51.458;7.046;2022-07-04T02:03:02;6.23;;;2.63;;
5795;SDS011;2924;51.458;7.046;2022-07-04T02:05:28;4.73;;;2.70;;
5795;SDS011;2924;51.458;7.046;2022-07-04T02:07:53;8.73;;;3.73;;
5795;SDS011;2924;51.458;7.046;2022-07-04T02:10:19;5.43;;;2.83;;
5795;SDS011;2924;51.458;7.046;2022-07-04T02:12:46;10.17;;;2.90;;
5795;SDS011;2924;51.458;7.046;2022-07-04T02:15:30;4.90;;;3.27;;
5795;SDS011;2924;51.458;7.046;2022-07-04T02:17:58;2.73;;;2.53;;
5795;SDS011;2924;51.458;7.046;2022-07-04T02:20:24;7.23;;;3.00;;
5795;SDS011;2924;51.458;7.046;2022-07-04T02:22:50;2.43;;;2.23;;
5795;SDS011;2924;51.458;7.046;2022-07-04T02:25:16;4.80;;;2.53;;
5795;SDS011;2924;51.458;7.046;2022-07-04T02:27:42;6.60;;;3.60;;
5795;SDS011;2924;51.458;7.046;2022-07-04T02:30:08;4.33;;;3.30;;
5795;SDS011;2924;51.458;7.046;2022-07-04T02:32:35;6.90;;;3.67;;
5795;SDS011;2924;51.458;7.046;2022-07-04T02:35:00;9.47;;;3.83;;
5795;SDS011;2924;51.458;7.046;2022-07-04T02:37:27;9.93;;;3.07;;
5795;SDS011;2924;51.458;7.046;2022-07-04T02:39:53;3.77;;;2.87;;
5795;SDS011;2924;51.458;7.046;2022-07-04T02:42:18;10.33;;;4.10;;
5795;SDS011;2924;51.458;7.046;2022-07-04T02:44:44;11.00;;;4.50;;
5795;SDS011;2924;51.458;7.046;2022-07-04T02:47:10;7.47;;;3.50;;
5795;SDS011;2924;51.458;7.046;2022-07-04T02:49:36;5.73;;;3.00;;
5795;SDS011;2924;51.458;7.046;2022-07-04T02:52:02;10.27;;;3.97;;
5795;SDS011;2924;51.458;7.046;2022-07-04T02:54:28;6.50;;;4.13;;
5795;SDS011;2924;51.458;7.046;2022-07-04T02:56:54;6.30;;;3.20;;
5795;SDS011;2924;51.458;7.046;2022-07-04T02:59:20;8.20;;;4.33;;
5795;SDS011;2924;51.458;7.046;2022-07-04T03:01:45;6.50;;;4.33;;
5795;SDS011;2924;51.458;7.046;2022-07-04T03:04:11;7.07;;;4.07;;
5795;SDS011;2924;51.458;7.046;2022-07-04T03:06:37;9.53;;;3.33;;
5795;SDS011;2924;51.458;7.046;2022-07-04T03:09:04;12.73;;;4.40;;
5795;SDS011;2924;51.458;7.046;2022-07-04T03:11:31;5.93;;;3.87;;
5795;SDS011;2924;51.458;7.046;2022-07-04T03:13:57;6.13;;;3.70;;
5795;SDS011;2924;51.458;7.046;2022-07-04T03:16:23;8.70;;;4.53;;
5795;SDS011;2924;51.458;7.046;2022-07-04T03:18:48;8.77;;;4.83;;
5795;SDS011;2924;51.458;7.046;2022-07-04T03:21:14;10.33;;;4.10;;
5795;SDS011;2924;51.458;7.046;2022-07-04T03:23:40;15.10;;;4.53;;
5795;SDS011;2924;51.458;7.046;2022-07-04T03:26:05;7.83;;;3.93;;
5795;SDS011;2924;51.458;7.046;2022-07-04T03:28:31;14.20;;;4.43;;
5795;SDS011;2924;51.458;7.046;2022-07-04T03:30:57;10.90;;;3.70;;
5795;SDS011;2924;51.458;7.046;2022-07-04T03:33:23;8.27;;;5.10;;
5795;SDS011;2924;51.458;7.046;2022-07-04T03:35:49;9.43;;;4.27;;
5795;SDS011;2924;51.458;7.046;2022-07-04T03:38:15;16.53;;;4.67;;
5795;SDS011;2924;51.458;7.046;2022-07-04T03:40:40;7.27;;;4.27;;
5795;SDS011;2924;51.458;7.046;2022-07-04T03:43:06;11.30;;;4.30;;
5795;SDS011;2924;51.458;7.046;2022-07-04T03:45:32;9.47;;;4.03;;
5795;SDS011;2924;51.458;7.046;2022-07-04T03:47:58;11.03;;;4.90;;
5795;SDS011;2924;51.458;7.046;2022-07-04T03:50:24;10.13;;;5.07;;
5795;SDS011;2924;51.458;7.046;2022-07-04T03:52:50;10.50;;;5.00;;
5795;SDS011;2924;51.458;7.046;2022-07-04T03:55:16;9.00;;;5.37;;
5795;SDS011;2924;51.458;7.046;2022-07-04T03:57:42;13.33;;;4.57;;
5795;SDS011;2924;51.458;7.046;2022-07-04T04:00:07;5.67;;;3.60;;
5795;SDS011;2924;51.458;7.046;2022-07-04T04:02:34;7.40;;;4.27;;
5795;SDS011;2924;51.458;7.046;2022-07-04T04:05:01;9.93;;;5.07;;
5795;SDS011;2924;51.458;7.046;2022-07-04T04:07:46;12.30;;;5.00;;
5795;SDS011;2924;51.458;7.046;2022-07-04T04:10:12;5.37;;;3.33;;
5795;SDS011;2924;51.458;7.046;2022-07-04T04:12:38;6.20;;;3.20;;
5795;SDS011;2924;51.458;7.046;2022-07-04T04:15:03;8.60;;;4.23;;
5795;SDS011;2924;51.458;7.046;2022-07-04T04:17:29;9.30;;;3.43;;
5795;SDS011;2924;51.458;7.046;2022-07-04T04:19:55;12.27;;;3.47;;
5795;SDS011;2924;51.458;7.046;2022-07-04T04:22:21;8.50;;;3.73;;
5795;SDS011;2924;51.458;7.046;2022-07-04T04:24:46;18.30;;;4.27;;
5795;SDS011;2924;51.458;7.046;2022-07-04T04:27:12;8.67;;;2.70;;
5795;SDS011;2924;51.458;7.046;2022-07-04T04:29:38;13.83;;;3.10;;
5795;SDS011;2924;51.458;7.046;2022-07-04T04:32:04;5.47;;;2.73;;
5795;SDS011;2924;51.458;7.046;2022-07-04T04:34:29;7.13;;;2.90;;
5795;SDS011;2924;51.458;7.046;2022-07-04T04:36:55;6.47;;;3.13;;
5795;SDS011;2924;51.458;7.046;2022-07-04T04:39:21;4.13;;;2.73;;
5795;SDS011;2924;51.458;7.046;2022-07-04T04:41:47;6.67;;;3.53;;
5795;SDS011;2924;51.458;7.046;2022-07-04T04:44:12;5.83;;;2.80;;
5795;SDS011;2924;51.458;7.046;2022-07-04T04:46:38;7.30;;;2.73;;
5795;SDS011;2924;51.458;7.046;2022-07-04T04:49:04;10.23;;;2.80;;
5795;SDS011;2924;51.458;7.046;2022-07-04T04:51:30;3.10;;;2.53;;
5795;SDS011;2924;51.458;7.046;2022-07-04T04:53:55;8.37;;;3.37;;
5795;SDS011;2924;51.458;7.046;2022-07-04T04:56:21;6.33;;;2.77;;
5795;SDS011;2924;51.458;7.046;2022-07-04T04:58:47;7.57;;;2.80;;
5795;SDS011;2924;51.458;7.046;2022-07-04T05:01:12;8.27;;;3.10;;
5795;SDS011;2924;51.458;7.046;2022-07-04T05:03:38;8.40;;;3.00;;
5795;SDS011;2924;51.458;7.046;2022-07-04T05:06:04;10.40;;;2.70;;
5795;SDS011;2924;51.458;7.046;2022-07-04T05:08:29;6.33;;;2.83;;
5795;SDS011;2924;51.458;7.046;2022-07-04T05:10:55;7.27;;;3.03;;
5795;SDS011;2924;51.458;7.046;2022-07-04T05:13:21;4.80;;;2.00;;
5795;SDS011;2924;51.458;7.046;2022-07-04T05:15:46;3.73;;;1.93;;
5795;SDS011;2924;51.458;7.046;2022-07-04T05:18:13;3.60;;;2.77;;
5795;SDS011;2924;51.458;7.046;2022-07-04T05:20:38;7.03;;;2.50;;
5795;SDS011;2924;51.458;7.046;2022-07-04T05:23:05;6.93;;;2.60;;
5795;SDS011;2924;51.458;7.046;2022-07-04T05:25:31;12.80;;;3.10;;
5795;SDS011;2924;51.458;7.046;2022-07-04T05:28:00;7.07;;;2.90;;
5795;SDS011;2924;51.458;7.046;2022-07-04T05:30:25;8.93;;;2.97;;
5795;SDS011;2924;51.458;7.046;2022-07-04T05:32:51;11.77;;;2.90;;
5795;SDS011;2924;51.458;7.046;2022-07-04T05:35:17;4.57;;;2.20;;
5795;SDS011;2924;51.458;7.046;2022-07-04T05:37:42;7.70;;;2.63;;
5795;SDS011;2924;51.458;7.046;2022-07-04T05:40:09;9.83;;;2.83;;
5795;SDS011;2924;51.458;7.046;2022-07-04T05:42:35;6.30;;;2.80;;
5795;SDS011;2924;51.458;7.046;2022-07-04T05:45:02;7.60;;;3.10;;
5795;SDS011;2924;51.458;7.046;2022-07-04T05:47:28;6.20;;;2.63;;
5795;SDS011;2924;51.458;7.046;2022-07-04T05:49:54;4.50;;;2.10;;
5795;SDS011;2924;51.458;7.046;2022-07-04T05:52:19;5.03;;;2.10;;
5795;SDS011;2924;51.458;7.046;2022-07-04T05:54:45;4.77;;;1.53;;
5795;SDS011;2924;51.458;7.046;2022-07-04T05:57:11;9.83;;;2.80;;
5795;SDS011;2924;51.458;7.046;2022-07-04T05:59:37;4.67;;;2.40;;
5795;SDS011;2924;51.458;7.046;2022-07-04T06:02:02;7.00;;;2.90;;
5795;SDS011;2924;51.458;7.046;2022-07-04T06:04:28;11.13;;;3.27;;
5795;SDS011;2924;51.458;7.046;2022-07-04T06:06:54;4.57;;;2.90;;
5795;SDS011;2924;51.458;7.046;2022-07-04T06:09:20;5.30;;;2.50;;
5795;SDS011;2924;51.458;7.046;2022-07-04T06:11:45;9.60;;;3.97;;
5795;SDS011;2924;51.458;7.046;2022-07-04T06:14:11;18.70;;;7.23;;
5795;SDS011;2924;51.458;7.046;2022-07-04T06:16:37;13.80;;;5.43;;
5795;SDS011;2924;51.458;7.046;2022-07-04T06:19:02;11.50;;;5.10;;
5795;SDS011;2924;51.458;7.046;2022-07-04T06:21:28;9.67;;;4.53;;
5795;SDS011;2924;51.458;7.046;2022-07-04T06:23:54;9.40;;;4.10;;
5795;SDS011;2924;51.458;7.046;2022-07-04T06:26:22;13.53;;;5.00;;
5795;SDS011;2924;51.458;7.046;2022-07-04T06:28:48;12.93;;;5.87;;
5795;SDS011;2924;51.458;7.046;2022-07-04T06:31:14;13.93;;;4.10;;
5795;SDS011;2924;51.458;7.046;2022-07-04T06:33:40;5.60;;;3.03;;
5795;SDS011;2924;51.458;7.046;2022-07-04T06:36:24;6.70;;;2.73;;
5795;SDS011;2924;51.458;7.046;2022-07-04T06:38:50;5.70;;;2.30;;
5795;SDS011;2924;51.458;7.046;2022-07-04T06:41:16;5.93;;;2.50;;
5795;SDS011;2924;51.458;7.046;2022-07-04T06:43:41;6.67;;;2.63;;
5795;SDS011;2924;51.458;7.046;2022-07-04T06:46:07;11.20;;;3.90;;
5795;SDS011;2924;51.458;7.046;2022-07-04T06:48:33;13.80;;;3.70;;
5795;SDS011;2924;51.458;7.046;2022-07-04T06:50:58;8.20;;;3.40;;
5795;SDS011;2924;51.458;7.046;2022-07-04T06:53:24;6.70;;;2.40;;
5795;SDS011;2924;51.458;7.046;2022-07-04T06:55:50;4.63;;;1.53;;
5795;SDS011;2924;51.458;7.046;2022-07-04T06:58:15;7.20;;;1.60;;
5795;SDS011;2924;51.458;7.046;2022-07-04T07:00:41;6.40;;;1.60;;
5795;SDS011;2924;51.458;7.046;2022-07-04T07:03:07;4.40;;;1.80;;
5795;SDS011;2924;51.458;7.046;2022-07-04T07:05:33;2.37;;;1.30;;
5795;SDS011;2924;51.458;7.046;2022-07-04T07:08:02;5.17;;;1.30;;
5795;SDS011;2924;51.458;7.046;2022-07-04T07:10:29;6.60;;;1.37;;
5795;SDS011;2924;51.458;7.046;2022-07-04T07:12:57;5.07;;;2.03;;
5795;SDS011;2924;51.458;7.046;2022-07-04T07:15:26;3.53;;;1.40;;
5795;SDS011;2924;51.458;7.046;2022-07-04T07:17:52;6.77;;;1.50;;
5795;SDS011;2924;51.458;7.046;2022-07-04T07:20:17;2.57;;;1.30;;
5795;SDS011;2924;51.458;7.046;2022-07-04T07:22:43;3.53;;;1.40;;
5795;SDS011;2924;51.458;7.046;2022-07-04T07:25:10;3.10;;;1.30;;
5795;SDS011;2924;51.458;7.046;2022-07-04T07:27:36;3.47;;;0.97;;
5795;SDS011;2924;51.458;7.046;2022-07-04T07:30:03;5.40;;;1.10;;
5795;SDS011;2924;51.458;7.046;2022-07-04T07:32:29;3.10;;;1.13;;
5795;SDS011;2924;51.458;7.046;2022-07-04T07:34:55;2.30;;;1.00;;
5795;SDS011;2924;51.458;7.046;2022-07-04T07:37:21;2.30;;;0.70;;
5795;SDS011;2924;51.458;7.046;2022-07-04T07:39:47;3.50;;;0.83;;
5795;SDS011;2924;51.458;7.046;2022-07-04T07:42:13;2.13;;;1.10;;
5795;SDS011;2924;51.458;7.046;2022-07-04T07:44:39;1.07;;;0.70;;
5795;SDS011;2924;51.458;7.046;2022-07-04T07:47:05;5.25;;;1.10;;
5795;SDS011;2924;51.458;7.046;2022-07-04T07:49:31;4.38;;;1.27;;
5795;SDS011;2924;51.458;7.046;2022-07-04T07:51:56;3.00;;;0.98;;
5795;SDS011;2924;51.458;7.046;2022-07-04T07:54:23;2.42;;;0.98;;
5795;SDS011;2924;51.458;7.046;2022-07-04T07:56:49;2.45;;;0.98;;
5795;SDS011;2924;51.458;7.046;2022-07-04T07:59:15;3.75;;;1.02;;
5795;SDS011;2924;51.458;7.046;2022-07-04T08:01:41;2.72;;;0.85;;
5795;SDS011;2924;51.458;7.046;2022-07-04T08:04:06;2.72;;;1.10;;
5795;SDS011;2924;51.458;7.046;2022-07-04T08:06:50;3.10;;;0.90;;
5795;SDS011;2924;51.458;7.046;2022-07-04T08:09:16;6.43;;;1.77;;
5795;SDS011;2924;51.458;7.046;2022-07-04T08:11:42;5.55;;;1.58;;
5795;SDS011;2924;51.458;7.046;2022-07-04T08:14:08;4.13;;;0.80;;
5795;SDS011;2924;51.458;7.046;2022-07-04T08:16:34;1.25;;;0.82;;
5795;SDS011;2924;51.458;7.046;2022-07-04T08:19:00;2.92;;;1.05;;
5795;SDS011;2924;51.458;7.046;2022-07-04T08:21:26;3.92;;;1.25;;
5795;SDS011;2924;51.458;7.046;2022-07-04T08:23:52;1.85;;;0.77;;
5795;SDS011;2924;51.458;7.046;2022-07-04T08:26:18;2.65;;;1.15;;
5795;SDS011;2924;51.458;7.046;2022-07-04T08:28:44;2.00;;;0.85;;
5795;SDS011;2924;51.458;7.046;2022-07-04T08:31:09;2.78;;;1.05;;
5795;SDS011;2924;51.458;7.046;2022-07-04T08:33:35;2.90;;;1.13;;
5795;SDS011;2924;51.458;7.046;2022-07-04T08:36:01;1.70;;;1.05;;
5795;SDS011;2924;51.458;7.046;2022-07-04T08:38:27;1.52;;;0.60;;
5795;SDS011;2924;51.458;7.046;2022-07-04T08:40:56;2.15;;;1.10;;
5795;SDS011;2924;51.458;7.046;2022-07-04T08:43:24;4.07;;;1.50;;
5795;SDS011;2924;51.458;7.046;2022-07-04T08:45:54;2.28;;;1.30;;
5795;SDS011;2924;51.458;7.046;2022-07-04T08:48:23;10.93;;;1.20;;
5795;SDS011;2924;51.458;7.046;2022-07-04T08:50:57;2.28;;;1.55;;
5795;SDS011;2924;51.458;7.046;2022-07-04T08:53:28;8.40;;;1.77;;
5795;SDS011;2924;51.458;7.046;2022-07-04T08:55:55;7.18;;;1.63;;
5795;SDS011;2924;51.458;7.046;2022-07-04T08:58:44;5.70;;;1.60;;
5795;SDS011;2924;51.458;7.046;2022-07-04T09:01:11;1.58;;;1.40;;
5795;SDS011;2924;51.458;7.046;2022-07-04T09:03:41;4.75;;;1.83;;
5795;SDS011;2924;51.458;7.046;2022-07-04T09:06:08;1.42;;;0.85;;
5795;SDS011;2924;51.458;7.046;2022-07-04T09:08:35;7.93;;;2.03;;
5795;SDS011;2924;51.458;7.046;2022-07-04T09:11:01;3.65;;;1.92;;
5795;SDS011;2924;51.458;7.046;2022-07-04T09:13:27;6.28;;;1.20;;
5795;SDS011;2924;51.458;7.046;2022-07-04T09:15:54;3.10;;;1.15;;
5795;SDS011;2924;51.458;7.046;2022-07-04T09:20:51;2.30;;;1.20;;
5795;SDS011;2924;51.458;7.046;2022-07-04T09:23:29;2.03;;;1.20;;
5795;SDS011;2924;51.458;7.046;2022-07-04T09:26:07;3.17;;;1.52;;
5795;SDS011;2924;51.458;7.046;2022-07-04T09:28:35;2.53;;;1.20;;
5795;SDS011;2924;51.458;7.046;2022-07-04T09:31:01;3.92;;;1.42;;
5795;SDS011;2924;51.458;7.046;2022-07-04T09:36:14;3.60;;;1.23;;
5795;SDS011;2924;51.458;7.046;2022-07-04T09:38:41;6.28;;;1.83;;
5795;SDS011;2924;51.458;7.046;2022-07-04T09:41:08;1.83;;;1.00;;
5795;SDS011;2924;51.458;7.046;2022-07-04T09:44:13;2.97;;;1.55;;
5795;SDS011;2924;51.458;7.046;2022-07-04T09:46:38;2.75;;;1.42;;
5795;SDS011;2924;51.458;7.046;2022-07-04T09:49:04;2.60;;;1.23;;
5795;SDS011;2924;51.458;7.046;2022-07-04T09:51:43;4.35;;;1.40;;
5795;SDS011;2924;51.458;7.046;2022-07-04T09:54:17;4.43;;;1.80;;
5795;SDS011;2924;51.458;7.046;2022-07-04T09:56:57;5.43;;;1.20;;
5795;SDS011;2924;51.458;7.046;2022-07-04T09:59:25;5.65;;;1.20;;
5795;SDS011;2924;51.458;7.046;2022-07-04T10:02:07;2.53;;;1.05;;
5795;SDS011;2924;51.458;7.046;2022-07-04T10:04:41;4.00;;;1.10;;
5795;SDS011;2924;51.458;7.046;2022-07-04T10:07:34;4.28;;;1.05;;
5795;SDS011;2924;51.458;7.046;2022-07-04T10:12:50;5.35;;;1.40;;
5795;SDS011;2924;51.458;7.046;2022-07-04T10:15:18;2.25;;;1.05;;
5795;SDS011;2924;51.458;7.046;2022-07-04T10:17:44;1.52;;;0.93;;
5795;SDS011;2924;51.458;7.046;2022-07-04T10:20:10;1.00;;;0.73;;
5795;SDS011;2924;51.458;7.046;2022-07-04T10:22:37;4.35;;;0.80;;
5795;SDS011;2924;51.458;7.046;2022-07-04T10:25:04;8.95;;;1.45;;
5795;SDS011;2924;51.458;7.046;2022-07-04T10:27:31;1.17;;;0.98;;
5795;SDS011;2924;51.458;7.046;2022-07-04T10:30:00;4.18;;;0.93;;
5795;SDS011;2924;51.458;7.046;2022-07-04T10:32:28;1.00;;;0.80;;
5795;SDS011;2924;51.458;7.046;2022-07-04T10:34:55;2.88;;;0.90;;
5795;SDS011;2924;51.458;7.046;2022-07-04T10:37:21;3.20;;;1.52;;
5795;SDS011;2924;51.458;7.046;2022-07-04T10:39:47;4.40;;;0.98;;
5795;SDS011;2924;51.458;7.046;2022-07-04T10:42:23;2.08;;;0.90;;
5795;SDS011;2924;51.458;7.046;2022-07-04T10:44:50;2.15;;;1.15;;
5795;SDS011;2924;51.458;7.046;2022-07-04T10:47:23;2.00;;;1.08;;
5795;SDS011;2924;51.458;7.046;2022-07-04T10:49:52;1.48;;;0.95;;
5795;SDS011;2924;51.458;7.046;2022-07-04T10:52:18;2.08;;;1.00;;
5795;SDS011;2924;51.458;7.046;2022-07-04T10:54:44;2.70;;;1.20;;
5795;SDS011;2924;51.458;7.046;2022-07-04T10:59:43;7.30;;;1.30;;
5795;SDS011;2924;51.458;7.046;2022-07-04T11:17:59;2.55;;;0.95;;
5795;SDS011;2924;51.458;7.046;2022-07-04T11:20:25;0.60;;;0.60;;
5795;SDS011;2924;51.458;7.046;2022-07-04T11:22:53;3.03;;;0.68;;
5795;SDS011;2924;51.458;7.046;2022-07-04T11:25:28;3.15;;;0.70;;
5795;SDS011;2924;51.458;7.046;2022-07-04T11:27:54;2.80;;;1.15;;
5795;SDS011;2924;51.458;7.046;2022-07-04T11:30:20;1.08;;;0.77;;
5795;SDS011;2924;51.458;7.046;2022-07-04T11:32:46;1.58;;;0.88;;
5795;SDS011;2924;51.458;7.046;2022-07-04T11:35:11;1.90;;;0.75;;
5795;SDS011;2924;51.458;7.046;2022-07-04T11:37:37;3.22;;;0.63;;
5795;SDS011;2924;51.458;7.046;2022-07-04T11:40:03;1.13;;;0.80;;
5795;SDS011;2924;51.458;7.046;2022-07-04T11:43:06;3.47;;;1.08;;
5795;SDS011;2924;51.458;7.046;2022-07-04T11:45:51;1.15;;;0.63;;
5795;SDS011;2924;51.458;7.046;2022-07-04T11:48:24;7.55;;;1.15;;
5795;SDS011;2924;51.458;7.046;2022-07-04T11:50:51;5.97;;;0.73;;
5795;SDS011;2924;51.458;7.046;2022-07-04T11:53:17;4.97;;;0.80;;
5795;SDS011;2924;51.458;7.046;2022-07-04T11:55:53;2.47;;;1.10;;
5795;SDS011;2924;51.458;7.046;2022-07-04T11:58:22;2.60;;;0.90;;
5795;SDS011;2924;51.458;7.046;2022-07-04T12:00:49;0.93;;;0.70;;
5795;SDS011;2924;51.458;7.046;2022-07-04T12:03:14;0.52;;;0.50;;
5795;SDS011;2924;51.458;7.046;2022-07-04T12:05:41;1.58;;;0.63;;
5795;SDS011;2924;51.458;7.046;2022-07-04T12:08:09;2.67;;;0.90;;
5795;SDS011;2924;51.458;7.046;2022-07-04T12:10:35;0.70;;;0.63;;
5795;SDS011;2924;51.458;7.046;2022-07-04T12:13:02;0.52;;;0.52;;
5795;SDS011;2924;51.458;7.046;2022-07-04T12:15:39;1.88;;;0.80;;
5795;SDS011;2924;51.458;7.046;2022-07-04T12:18:25;1.77;;;1.10;;
5795;SDS011;2924;51.458;7.046;2022-07-04T12:21:11;4.07;;;1.20;;
5795;SDS011;2924;51.458;7.046;2022-07-04T12:23:49;4.47;;;2.15;;
5795;SDS011;2924;51.458;7.046;2022-07-04T12:26:19;2.90;;;1.33;;
5795;SDS011;2924;51.458;7.046;2022-07-04T12:28:45;1.70;;;1.02;;
5795;SDS011;2924;51.458;7.046;2022-07-04T12:31:11;1.70;;;1.13;;
5795;SDS011;2924;51.458;7.046;2022-07-04T12:33:37;1.50;;;1.10;;
5795;SDS011;2924;51.458;7.046;2022-07-04T12:36:03;1.70;;;1.00;;
5795;SDS011;2924;51.458;7.046;2022-07-04T12:38:35;3.70;;;0.93;;
5795;SDS011;2924;51.458;7.046;2022-07-04T12:46:19;4.55;;;1.23;;
5795;SDS011;2924;51.458;7.046;2022-07-04T12:48:53;2.42;;;0.70;;
5795;SDS011;2924;51.458;7.046;2022-07-04T12:51:20;1.42;;;1.02;;
5795;SDS011;2924;51.458;7.046;2022-07-04T12:53:51;2.67;;;0.60;;
5795;SDS011;2924;51.458;7.046;2022-07-04T12:56:31;3.67;;;0.90;;
5795;SDS011;2924;51.458;7.046;2022-07-04T12:59:02;2.15;;;0.90;;
5795;SDS011;2924;51.458;7.046;2022-07-04T13:01:30;1.30;;;0.75;;
5795;SDS011;2924;51.458;7.046;2022-07-04T13:03:57;1.85;;;0.75;;
5795;SDS011;2924;51.458;7.046;2022-07-04T13:06:24;0.95;;;0.80;;
5795;SDS011;2924;51.458;7.046;2022-07-04T13:08:50;4.68;;;0.68;;
5795;SDS011;2924;51.458;7.046;2022-07-04T13:11:16;1.25;;;0.80;;
5795;SDS011;2924;51.458;7.046;2022-07-04T13:14:00;1.98;;;0.80;;
5795;SDS011;2924;51.458;7.046;2022-07-04T13:16:26;1.02;;;0.77;;
5795;SDS011;2924;51.458;7.046;2022-07-04T13:18:51;4.72;;;0.95;;
5795;SDS011;2924;51.458;7.046;2022-07-04T13:21:17;1.80;;;0.77;;
5795;SDS011;2924;51.458;7.046;2022-07-04T13:23:43;5.80;;;0.70;;
5795;SDS011;2924;51.458;7.046;2022-07-04T13:26:09;3.17;;;1.05;;
5795;SDS011;2924;51.458;7.046;2022-07-04T13:28:35;5.97;;;1.15;;
5795;SDS011;2924;51.458;7.046;2022-07-04T13:31:00;4.15;;;0.73;;
5795;SDS011;2924;51.458;7.046;2022-07-04T13:33:29;2.97;;;0.95;;
5795;SDS011;2924;51.458;7.046;2022-07-04T13:35:55;3.38;;;1.08;;
5795;SDS011;2924;51.458;7.046;2022-07-04T13:38:22;4.30;;;0.90;;
5795;SDS011;2924;51.458;7.046;2022-07-04T13:40:48;2.58;;;0.80;;
5795;SDS011;2924;51.458;7.046;2022-07-04T13:43:13;3.60;;;1.00;;
5795;SDS011;2924;51.458;7.046;2022-07-04T13:45:39;6.82;;;1.08;;
5795;SDS011;2924;51.458;7.046;2022-07-04T13:48:08;2.90;;;1.00;;
5795;SDS011;2924;51.458;7.046;2022-07-04T13:50:34;3.50;;;0.70;;
5795;SDS011;2924;51.458;7.046;2022-07-04T13:53:03;1.77;;;0.88;;
5795;SDS011;2924;51.458;7.046;2022-07-04T13:55:32;3.17;;;0.80;;
5795;SDS011;2924;51.458;7.046;2022-07-04T13:58:01;1.33;;;0.77;;
5795;SDS011;2924;51.458;7.046;2022-07-04T14:00:28;0.90;;;0.90;;
5795;SDS011;2924;51.458;7.046;2022-07-04T14:02:54;1.40;;;0.95;;
5795;SDS011;2924;51.458;7.046;2022-07-04T14:05:19;2.80;;;1.05;;
5795;SDS011;2924;51.458;7.046;2022-07-04T14:07:45;1.77;;;0.57;;
5795;SDS011;2924;51.458;7.046;2022-07-04T14:10:11;2.58;;;1.02;;
5795;SDS011;2924;51.458;7.046;2022-07-04T14:12:37;2.83;;;0.60;;
5795;SDS011;2924;51.458;7.046;2022-07-04T14:15:03;3.58;;;1.00;;
5795;SDS011;2924;51.458;7.046;2022-07-04T14:17:29;1.23;;;0.70;;
5795;SDS011;2924;51.458;7.046;2022-07-04T14:19:55;1.75;;;1.15;;
5795;SDS011;2924;51.458;7.046;2022-07-04T14:22:21;1.08;;;0.70;;
5795;SDS011;2924;51.458;7.046;2022-07-04T14:24:46;1.40;;;0.90;;
5795;SDS011;2924;51.458;7.046;2022-07-04T14:27:12;1.75;;;1.20;;
5795;SDS011;2924;51.458;7.046;2022-07-04T14:29:39;2.88;;;1.02;;
5795;SDS011;2924;51.458;7.046;2022-07-04T14:32:06;1.15;;;0.90;;
5795;SDS011;2924;51.458;7.046;2022-07-04T14:34:32;8.65;;;1.00;;
5795;SDS011;2924;51.458;7.046;2022-07-04T14:36:58;2.15;;;0.70;;
5795;SDS011;2924;51.458;7.046;2022-07-04T14:39:23;1.88;;;0.73;;
5795;SDS011;2924;51.458;7.046;2022-07-04T14:41:49;2.28;;;0.80;;
5795;SDS011;2924;51.458;7.046;2022-07-04T14:44:16;1.30;;;1.00;;
5795;SDS011;2924;51.458;7.046;2022-07-04T14:46:41;0.85;;;0.75;;
5795;SDS011;2924;51.458;7.046;2022-07-04T14:49:07;2.47;;;0.80;;
5795;SDS011;2924;51.458;7.046;2022-07-04T14:51:33;1.92;;;0.85;;
5795;SDS011;2924;51.458;7.046;2022-07-04T14:53:59;1.30;;;0.60;;
5795;SDS011;2924;51.458;7.046;2022-07-04T14:56:24;3.35;;;0.77;;
5795;SDS011;2924;51.458;7.046;2022-07-04T14:58:50;1.15;;;1.05;;
5795;SDS011;2924;51.458;7.046;2022-07-04T15:01:16;2.95;;;0.90;;
5795;SDS011;2924;51.458;7.046;2022-07-04T15:03:41;1.27;;;0.73;;
5795;SDS011;2924;51.458;7.046;2022-07-04T15:06:07;1.38;;;0.77;;
5795;SDS011;2924;51.458;7.046;2022-07-04T15:08:33;2.50;;;1.48;;
5795;SDS011;2924;51.458;7.046;2022-07-04T15:10:58;4.00;;;0.88;;
5795;SDS011;2924;51.458;7.046;2022-07-04T15:13:24;2.60;;;1.17;;
5795;SDS011;2924;51.458;7.046;2022-07-04T15:15:50;2.08;;;1.08;;
5795;SDS011;2924;51.458;7.046;2022-07-04T15:18:15;1.13;;;0.98;;
5795;SDS011;2924;51.458;7.046;2022-07-04T15:20:41;4.68;;;1.20;;
5795;SDS011;2924;51.458;7.046;2022-07-04T15:23:25;2.78;;;0.98;;
5795;SDS011;2924;51.458;7.046;2022-07-04T15:26:09;2.50;;;1.17;;
5795;SDS011;2924;51.458;7.046;2022-07-04T15:28:35;2.15;;;1.25;;
5795;SDS011;2924;51.458;7.046;2022-07-04T15:31:01;3.78;;;1.27;;
5795;SDS011;2924;51.458;7.046;2022-07-04T15:33:27;3.33;;;1.50;;
5795;SDS011;2924;51.458;7.046;2022-07-04T15:35:55;2.65;;;1.15;;
5795;SDS011;2924;51.458;7.046;2022-07-04T15:38:21;2.33;;;1.30;;
5795;SDS011;2924;51.458;7.046;2022-07-04T15:40:47;1.77;;;1.17;;
5795;SDS011;2924;51.458;7.046;2022-07-04T15:43:13;3.97;;;1.00;;
5795;SDS011;2924;51.458;7.046;2022-07-04T15:45:39;3.33;;;1.15;;
5795;SDS011;2924;51.458;7.046;2022-07-04T15:48:05;2.25;;;0.98;;